Time;durP1;ratioP1;P1;durP2;ratioP2;P2;SDS_P1;SDS_P2;PMS_P1;PMS_P2;Temp;Humidity;BMP_temperature;BMP_pressure;BME280_temperature;BME280_humidity;BME280_pressure;Samples;Min_cycle;Max_cycle;Signal;HPM_P1;HPM_P2
2020/12/15 05:30:29;;;;;;;1999.90;999.90;;;5.80;99.90;;;;;;5901465;23;20180;-77
2020/12/15 05:32:57;;;;;;;1999.90;999.90;;;5.70;99.90;;;;;;4995473;28;20622;-76
2020/12/15 05:35:28;;;;;;;1999.90;999.90;;;5.80;99.90;;;;;;4995726;28;20238;-75
2020/12/15 05:37:56;;;;;;;1999.90;999.90;;;5.80;99.90;;;;;;4995654;28;20665;-77
2020/12/15 05:40:23;;;;;;;1999.90;999.90;;;5.80;99.90;;;;;;4990049;28;20598;-75
2020/12/15 05:42:55;;;;;;;1999.90;999.90;;;5.80;99.90;;;;;;4995580;28;20616;-76
2020/12/15 05:45:23;;;;;;;1999.90;999.90;;;5.70;99.90;;;;;;4994729;28;20200;-77
2020/12/15 05:47:59;;;;;;;1999.90;999.90;;;5.80;99.90;;;;;;4989298;28;20199;-76
2020/12/15 05:50:26;;;;;;;1999.90;999.90;;;5.80;99.90;;;;;;4994885;28;20729;-76
2020/12/15 05:52:57;;;;;;;1999.90;999.90;;;5.90;99.90;;;;;;4995314;28;20204;-76
2020/12/15 05:55:24;;;;;;;1999.90;999.90;;;5.90;99.90;;;;;;4995260;28;20208;-76
2020/12/15 05:57:51;;;;;;;1999.90;999.90;;;5.90;99.90;;;;;;4994787;28;20681;-76
2020/12/15 06:00:24;;;;;;;1999.90;999.90;;;5.80;99.90;;;;;;4994659;28;20208;-75
2020/12/15 06:02:59;;;;;;;1999.90;999.90;;;5.90;99.90;;;;;;4994742;28;20208;-76
2020/12/15 06:05:28;;;;;;;1999.90;999.90;;;5.90;99.90;;;;;;4998902;28;20203;-76
2020/12/15 06:07:56;;;;;;;1999.90;999.90;;;5.80;99.90;;;;;;5013992;28;20213;-76
2020/12/15 06:10:24;;;;;;;1999.90;999.90;;;5.90;99.90;;;;;;5014339;28;20203;-76
2020/12/15 06:12:51;;;;;;;1999.90;999.90;;;5.90;99.90;;;;;;5014462;28;20203;-78
2020/12/15 06:15:19;;;;;;;1999.90;999.90;;;5.90;99.90;;;;;;5014199;28;20250;-76
2020/12/15 06:17:48;;;;;;;1999.90;999.90;;;5.90;99.90;;;;;;5014060;28;20261;-76
2020/12/15 06:20:19;;;;;;;1999.90;999.90;;;6.00;99.90;;;;;;5014128;28;20210;-76
2020/12/15 06:22:47;;;;;;;1999.90;999.90;;;6.00;99.90;;;;;;5013932;28;20250;-76
2020/12/15 06:25:25;;;;;;;1999.90;999.90;;;6.00;99.90;;;;;;5014166;28;20230;-78
2020/12/15 06:28:00;;;;;;;1999.90;999.90;;;6.00;99.90;;;;;;5013657;28;20261;-78
2020/12/15 06:30:31;;;;;;;1999.90;999.90;;;5.90;99.90;;;;;;5013981;28;20249;-76
2020/12/15 06:33:03;;;;;;;1999.90;999.90;;;5.90;99.90;;;;;;5013947;28;20207;-76
2020/12/15 06:35:31;;;;;;;1999.90;999.90;;;5.90;99.90;;;;;;5013940;28;20207;-76
2020/12/15 06:37:59;;;;;;;1999.90;999.90;;;5.90;99.90;;;;;;5013639;28;20302;-75
2020/12/15 06:40:26;;;;;;;1999.90;999.90;;;5.90;99.90;;;;;;5012506;28;20570;-76
2020/12/15 06:42:54;;;;;;;1999.90;999.90;;;5.90;99.90;;;;;;5013654;28;20199;-76
2020/12/15 06:45:23;;;;;;;1999.90;999.90;;;5.90;99.90;;;;;;5013630;28;20334;-77
2020/12/15 06:47:57;;;;;;;1999.90;999.90;;;5.90;99.90;;;;;;5013262;28;20210;-76
2020/12/15 06:50:24;;;;;;;1999.90;999.90;;;5.90;99.90;;;;;;5012019;28;20202;-76
2020/12/15 06:52:53;;;;;;;1999.90;999.90;;;5.90;99.90;;;;;;5011536;28;20204;-76
2020/12/15 06:55:29;;;;;;;1999.90;999.90;;;5.80;99.90;;;;;;5012143;28;20210;-76
2020/12/15 06:58:00;;;;;;;1999.90;999.90;;;5.80;99.90;;;;;;5013666;28;20207;-78
2020/12/15 07:00:35;;;;;;;1999.90;999.90;;;5.90;99.90;;;;;;5013735;28;20234;-77
2020/12/15 07:03:04;;;;;;;1999.90;999.90;;;5.90;99.90;;;;;;5013630;28;20230;-77
2020/12/15 07:05:34;;;;;;;1999.90;999.90;;;5.90;99.90;;;;;;5014100;28;20614;-76
2020/12/15 07:08:07;;;;;;;1999.90;999.90;;;6.00;99.90;;;;;;5013484;28;20209;-75
2020/12/15 07:10:35;;;;;;;1999.90;999.90;;;6.00;99.90;;;;;;5015171;28;20640;-78
2020/12/15 07:13:02;;;;;;;1999.90;999.90;;;6.00;99.90;;;;;;5015840;28;20203;-78
2020/12/15 07:15:30;;;;;;;1999.90;999.90;;;6.10;99.90;;;;;;5015460;28;20211;-75
2020/12/15 07:17:57;;;;;;;1999.90;999.90;;;6.20;99.90;;;;;;5014500;28;20207;-75
2020/12/15 07:20:25;;;;;;;1999.90;999.90;;;6.20;99.90;;;;;;5013356;28;20672;-79
2020/12/15 07:22:52;;;;;;;1999.90;999.90;;;6.20;99.90;;;;;;5013525;28;20207;-77
2020/12/15 07:25:20;;;;;;;1999.90;999.90;;;6.30;99.90;;;;;;5014346;28;20200;-77
2020/12/15 07:27:48;;;;;;;1999.90;999.90;;;6.20;99.90;;;;;;5016390;28;20211;-79
2020/12/15 07:30:17;;;;;;;1999.90;999.90;;;6.30;99.90;;;;;;5016842;28;20200;-79
2020/12/15 07:32:45;;;;;;;1999.90;999.90;;;6.20;99.90;;;;;;5016950;28;20199;-77
2020/12/15 07:35:18;;;;;;;1999.90;999.90;;;6.30;99.90;;;;;;5016095;28;20207;-78
2020/12/15 07:37:45;;;;;;;1999.90;999.90;;;6.30;99.90;;;;;;5016953;28;20209;-79
2020/12/15 07:40:14;;;;;;;1999.90;999.90;;;6.20;99.90;;;;;;5016172;28;20203;-79
2020/12/15 07:42:53;;;;;;;1999.90;999.90;;;6.20;99.90;;;;;;5016183;28;20227;-78
2020/12/15 07:45:23;;;;;;;1999.90;999.90;;;6.30;99.90;;;;;;5015439;28;20738;-78
2020/12/15 07:47:50;;;;;;;1999.90;999.90;;;6.30;99.90;;;;;;5015185;28;20601;-78
2020/12/15 07:50:22;;;;;;;1999.90;999.90;;;6.30;99.90;;;;;;5014392;28;20310;-79
2020/12/15 07:52:49;;;;;;;1999.90;999.90;;;6.40;99.90;;;;;;5015348;28;20622;-78
2020/12/15 07:55:16;;;;;;;1999.90;999.90;;;6.40;99.90;;;;;;5015597;28;20287;-78
2020/12/15 07:57:50;;;;;;;1999.90;999.90;;;6.30;99.90;;;;;;5015524;28;20573;-81
2020/12/15 08:00:20;;;;;;;1999.90;999.90;;;6.40;99.90;;;;;;5015394;28;20210;-77
2020/12/15 08:02:51;;;;;;;1999.90;999.90;;;6.50;99.90;;;;;;5015396;28;20250;-78
2020/12/15 08:05:20;;;;;;;1999.90;999.90;;;6.50;99.90;;;;;;5015279;28;20207;-77
2020/12/15 08:07:50;;;;;;;1999.90;999.90;;;6.50;99.90;;;;;;5015299;28;20204;-76
2020/12/15 08:10:24;;;;;;;1999.90;999.90;;;6.50;99.90;;;;;;5016173;28;20246;-78
2020/12/15 08:12:52;;;;;;;1999.90;999.90;;;6.50;99.90;;;;;;5015989;28;20493;-79
2020/12/15 08:15:19;;;;;;;1999.90;999.90;;;6.50;99.90;;;;;;5016644;28;20206;-77
2020/12/15 08:17:49;;;;;;;1999.90;999.90;;;6.50;99.90;;;;;;5014575;28;20579;-78
2020/12/15 08:20:18;;;;;;;1999.90;999.90;;;6.60;99.90;;;;;;5015672;28;20257;-78
2020/12/15 08:22:46;;;;;;;1999.90;999.90;;;6.60;99.90;;;;;;5016667;28;20230;-78
2020/12/15 08:25:16;;;;;;;1999.90;999.90;;;6.70;99.90;;;;;;5015975;28;20207;-77
2020/12/15 08:27:51;;;;;;;1999.90;999.90;;;6.70;99.90;;;;;;5015083;28;20202;-78
2020/12/15 08:30:20;;;;;;;1999.90;999.90;;;6.80;99.90;;;;;;5018005;28;20234;-79
2020/12/15 08:32:48;;;;;;;1999.90;999.90;;;6.80;99.90;;;;;;5015754;28;20195;-78
2020/12/15 08:35:22;;;;;;;1999.90;999.90;;;6.80;99.90;;;;;;5015772;28;20257;-77
2020/12/15 08:37:55;;;;;;;1999.90;999.90;;;6.90;99.90;;;;;;5015836;28;20202;-78
2020/12/15 08:40:23;;;;;;;1999.90;999.90;;;6.80;99.90;;;;;;5015737;28;20254;-77
2020/12/15 08:42:55;;;;;;;1999.90;999.90;;;6.80;99.90;;;;;;5014794;28;20632;-77
2020/12/15 08:45:25;;;;;;;1999.90;999.90;;;6.90;99.90;;;;;;5013862;28;20268;-79
2020/12/15 08:47:53;;;;;;;1999.90;999.90;;;7.00;99.90;;;;;;5015086;28;20214;-77
2020/12/15 08:50:21;;;;;;;1999.90;999.90;;;7.10;99.90;;;;;;5014449;28;20199;-77
2020/12/15 08:52:48;;;;;;;1999.90;999.90;;;7.10;99.90;;;;;;5015295;28;20207;-77
2020/12/15 08:55:15;;;;;;;1999.90;999.90;;;7.00;99.90;;;;;;5012721;28;20203;-78
2020/12/15 08:57:41;;;;;;;1999.90;999.90;;;7.10;99.90;;;;;;5012433;28;20282;-77
2020/12/15 09:00:14;;;;;;;1999.90;999.90;;;7.10;99.90;;;;;;5013385;28;20199;-79
2020/12/15 09:02:41;;;;;;;1999.90;999.90;;;7.00;99.90;;;;;;5015357;28;20230;-79
2020/12/15 09:05:10;;;;;;;1999.90;999.90;;;7.10;99.90;;;;;;5017537;28;20195;-77
2020/12/15 09:07:38;;;;;;;1999.90;999.90;;;7.10;99.90;;;;;;5018014;28;20203;-79
2020/12/15 09:10:12;;;;;;;1999.90;999.90;;;7.10;99.90;;;;;;5018822;28;20273;-77
2020/12/15 09:12:43;;;;;;;1999.90;999.90;;;6.90;99.90;;;;;;5019517;28;20199;-79
2020/12/15 09:15:10;;;;;;;1999.90;999.90;;;7.00;99.90;;;;;;5020781;28;20203;-79
2020/12/15 09:17:38;;;;;;;1999.90;999.90;;;7.00;99.90;;;;;;5020160;28;20234;-78
2020/12/15 09:20:08;;;;;;;1999.90;999.90;;;7.10;99.90;;;;;;5019888;28;20727;-79
2020/12/15 09:22:37;;;;;;;1999.90;999.90;;;7.30;99.90;;;;;;5020009;28;20250;-77
2020/12/15 09:25:14;;;;;;;1999.90;999.90;;;7.40;99.90;;;;;;5019889;28;20264;-79
2020/12/15 09:27:44;;;;;;;1999.90;999.90;;;7.40;99.90;;;;;;5019336;28;20203;-77
2020/12/15 09:30:12;;;;;;;1999.90;999.90;;;7.30;99.90;;;;;;5007371;28;20622;-77
2020/12/15 09:32:42;;;;;;;1999.90;999.90;;;7.30;99.90;;;;;;4997427;28;20204;-80
2020/12/15 09:35:11;;;;;;;1999.90;999.90;;;7.40;99.90;;;;;;4999232;28;20623;-78
2020/12/15 09:37:38;;;;;;;1999.90;999.90;;;7.40;99.90;;;;;;4998881;28;20293;-79
2020/12/15 09:40:08;;;;;;;1999.90;999.90;;;7.50;99.90;;;;;;4999636;28;20211;-78
2020/12/15 09:42:36;;;;;;;1999.90;999.90;;;7.60;99.90;;;;;;4998792;28;20228;-78
2020/12/15 09:45:05;;;;;;;1999.90;999.90;;;7.60;99.90;;;;;;4999462;28;20673;-78
2020/12/15 09:47:32;;;;;;;1999.90;999.90;;;7.70;99.90;;;;;;4999311;28;20204;-78
2020/12/15 09:50:01;;;;;;;1999.90;999.90;;;7.70;99.90;;;;;;4998707;28;20239;-79
2020/12/15 09:52:29;;;;;;;1999.90;999.90;;;7.50;99.90;;;;;;4998288;28;20224;-79
2020/12/15 09:54:56;;;;;;;1999.90;999.90;;;7.50;99.90;;;;;;4999078;28;20208;-78
2020/12/15 09:57:23;;;;;;;1999.90;999.90;;;7.50;99.90;;;;;;4997574;28;20208;-79
2020/12/15 09:59:50;;;;;;;1999.90;999.90;;;7.60;99.90;;;;;;4996238;28;20208;-80
2020/12/15 10:02:17;;;;;;;1999.90;999.90;;;7.50;99.90;;;;;;4997268;28;20220;-79
2020/12/15 10:04:44;;;;;;;1999.90;999.90;;;7.60;99.90;;;;;;5000084;28;20669;-80
2020/12/15 10:07:13;;;;;;;1999.90;999.90;;;7.60;99.90;;;;;;4998914;28;20657;-79
2020/12/15 10:09:39;;;;;;;1999.90;999.90;;;7.60;99.90;;;;;;4999121;28;20230;-78
2020/12/15 10:12:06;;;;;;;1999.90;999.90;;;7.60;99.90;;;;;;4997502;28;20216;-79
2020/12/15 10:14:33;;;;;;;1999.90;999.90;;;7.70;99.90;;;;;;4998522;28;20211;-81
2020/12/15 10:17:00;;;;;;;1999.90;999.90;;;7.80;99.90;;;;;;4996588;28;20208;-80
2020/12/15 10:19:27;;;;;;;1999.90;999.90;;;7.90;99.90;;;;;;4998709;28;20319;-81
2020/12/15 10:21:56;;;;;;;1999.90;999.90;;;7.90;99.90;;;;;;4999003;28;20701;-80
2020/12/15 10:24:24;;;;;;;1999.90;999.90;;;7.90;99.90;;;;;;4998155;28;20208;-79
2020/12/15 10:26:53;;;;;;;1999.90;999.90;;;7.90;99.90;;;;;;4997586;28;20642;-80
2020/12/15 10:29:20;;;;;;;1999.90;999.90;;;7.90;99.90;;;;;;5000272;28;20211;-80
2020/12/15 10:31:48;;;;;;;1999.90;999.90;;;7.80;99.90;;;;;;4998386;28;20577;-80
2020/12/15 10:34:15;;;;;;;1999.90;999.90;;;7.70;99.90;;;;;;4999308;28;20215;-78
2020/12/15 10:36:42;;;;;;;1999.90;999.90;;;7.80;99.90;;;;;;4999212;28;20227;-80
2020/12/15 10:39:09;;;;;;;1999.90;999.90;;;8.60;99.90;;;;;;4997506;28;20212;-80
2020/12/15 10:41:39;;;;;;;1999.90;999.90;;;7.80;99.90;;;;;;4997631;28;20259;-81
2020/12/15 10:44:12;;;;;;;1999.90;999.90;;;7.80;99.90;;;;;;4997246;28;20676;-79
2020/12/15 10:46:39;;;;;;;1999.90;999.90;;;7.90;99.90;;;;;;4998655;28;20204;-78
2020/12/15 10:49:06;;;;;;;1999.90;999.90;;;7.90;99.90;;;;;;4998773;28;20215;-79
2020/12/15 10:51:33;;;;;;;1999.90;999.90;;;7.90;99.90;;;;;;4995833;28;20232;-79
2020/12/15 10:54:01;;;;;;;1999.90;999.90;;;8.00;99.90;;;;;;4995519;28;20204;-77
2020/12/15 10:56:28;;;;;;;1999.90;999.90;;;8.10;99.90;;;;;;4995536;28;20207;-78
2020/12/15 10:58:55;;;;;;;1999.90;999.90;;;8.00;99.90;;;;;;4995855;28;20631;-78
2020/12/15 11:01:23;;;;;;;1999.90;999.90;;;8.00;99.90;;;;;;4995798;28;20278;-81
2020/12/15 11:03:50;;;;;;;1999.90;999.90;;;8.00;99.90;;;;;;4995791;28;20208;-77
2020/12/15 11:06:17;;;;;;;1999.90;999.90;;;7.90;99.90;;;;;;4995492;28;20278;-78
2020/12/15 11:08:44;;;;;;;1999.90;999.90;;;7.90;99.90;;;;;;4995561;28;20208;-78
2020/12/15 11:11:11;;;;;;;1999.90;999.90;;;7.90;99.90;;;;;;4995411;28;20276;-78
2020/12/15 11:13:38;;;;;;;1999.90;999.90;;;8.10;99.90;;;;;;4997808;28;20212;-76
2020/12/15 11:16:06;;;;;;;1999.90;999.90;;;8.20;99.90;;;;;;4996728;28;20204;-75
2020/12/15 11:18:33;;;;;;;1999.90;999.90;;;8.30;99.90;;;;;;4994957;28;20204;-79
2020/12/15 11:21:00;;;;;;;1999.90;999.90;;;8.30;99.90;;;;;;4995422;28;20712;-77
2020/12/15 11:23:27;;;;;;;1999.90;999.90;;;8.40;99.90;;;;;;4997080;28;20224;-79
2020/12/15 11:26:10;;;;;;;1999.90;999.90;;;8.40;99.90;;;;;;4995022;28;20204;-78
2020/12/15 11:28:37;;;;;;;1999.90;999.90;;;8.30;99.90;;;;;;4995170;28;20566;-78
2020/12/15 11:31:04;;;;;;;1999.90;999.90;;;8.30;99.90;;;;;;4994465;28;20254;-76
2020/12/15 11:33:32;;;;;;;1999.90;999.90;;;8.30;99.90;;;;;;4994727;28;20204;-82
2020/12/15 11:35:59;;;;;;;1999.90;999.90;;;8.30;99.90;;;;;;4995568;28;20240;-77
2020/12/15 11:38:25;;;;;;;1999.90;999.90;;;8.20;99.90;;;;;;4995272;28;20250;-78
2020/12/15 11:40:52;;;;;;;1999.90;999.90;;;8.30;99.90;;;;;;4995541;28;20784;-77
2020/12/15 11:43:19;;;;;;;1999.90;999.90;;;8.30;99.90;;;;;;4995773;28;20220;-78
2020/12/15 11:45:46;;;;;;;1999.90;999.90;;;8.40;99.90;;;;;;4994204;28;20251;-73
2020/12/15 11:48:13;;;;;;;1999.90;999.90;;;8.50;99.90;;;;;;4992498;28;20200;-74
2020/12/15 11:50:41;;;;;;;1999.90;999.90;;;8.70;99.90;;;;;;4992595;28;20235;-74
2020/12/15 11:53:08;;;;;;;1999.90;999.90;;;8.80;99.90;;;;;;4992907;28;20199;-73
2020/12/15 11:55:35;;;;;;;1999.90;999.90;;;8.80;99.90;;;;;;4992867;28;20204;-75
2020/12/15 11:58:02;;;;;;;1999.90;999.90;;;8.80;99.90;;;;;;4992397;28;20251;-75
2020/12/15 12:00:29;;;;;;;1999.90;999.90;;;8.80;99.90;;;;;;4992566;28;20214;-72
2020/12/15 12:02:57;;;;;;;1999.90;999.90;;;8.80;99.90;;;;;;4992429;28;20587;-77
2020/12/15 12:05:23;;;;;;;1999.90;999.90;;;8.80;99.90;;;;;;4992349;28;20234;-76
2020/12/15 12:07:51;;;;;;;1999.90;999.90;;;8.90;99.90;;;;;;4992393;28;20226;-75
2020/12/15 12:10:18;;;;;;;1999.90;999.90;;;8.80;99.90;;;;;;4988586;28;20204;-75
2020/12/15 12:12:47;;;;;;;1999.90;999.90;;;8.80;99.90;;;;;;4997236;28;20305;-76
2020/12/15 12:15:14;;;;;;;1999.90;999.90;;;8.80;99.90;;;;;;5005963;28;20689;-78
2020/12/15 12:17:41;;;;;;;1999.90;999.90;;;8.80;99.90;;;;;;4992887;28;20661;-79
2020/12/15 12:20:08;;;;;;;1999.90;999.90;;;8.80;99.90;;;;;;4993307;28;20199;-78
2020/12/15 12:22:35;;;;;;;1999.90;999.90;;;8.80;99.90;;;;;;4992835;28;20216;-78
2020/12/15 12:25:04;;;;;;;1999.90;999.90;;;8.80;99.90;;;;;;5003590;28;20207;-78
2020/12/15 12:27:31;;;;;;;1999.90;999.90;;;8.70;99.90;;;;;;5012648;28;20202;-77
2020/12/15 12:30:03;;;;;;;1999.90;999.90;;;8.80;99.90;;;;;;5012197;28;20257;-78
2020/12/15 12:32:30;;;;;;;1999.90;999.90;;;8.80;99.90;;;;;;5011827;28;20235;-77
2020/12/15 12:34:57;;;;;;;1999.90;999.90;;;8.90;99.90;;;;;;5012476;28;20203;-78
2020/12/15 12:37:24;;;;;;;1999.90;999.90;;;8.80;99.90;;;;;;5012873;28;20200;-78
2020/12/15 12:39:51;;;;;;;1999.90;999.90;;;8.90;99.90;;;;;;5012059;28;20211;-78
2020/12/15 12:42:19;;;;;;;1999.90;999.90;;;9.00;99.90;;;;;;5012369;28;20227;-78
2020/12/15 12:44:46;;;;;;;1999.90;999.90;;;9.10;99.90;;;;;;5011936;28;20203;-78
2020/12/15 12:47:13;;;;;;;1999.90;999.90;;;9.20;99.90;;;;;;5012025;28;20207;-78
2020/12/15 12:49:40;;;;;;;1999.90;999.90;;;9.30;99.90;;;;;;5011880;28;20239;-78
2020/12/15 12:52:07;;;;;;;1999.90;999.90;;;9.30;99.90;;;;;;5011506;28;20224;-78
2020/12/15 12:54:34;;;;;;;1999.90;999.90;;;9.20;99.90;;;;;;5012064;28;20207;-77
2020/12/15 12:57:01;;;;;;;1999.90;999.90;;;9.10;99.90;;;;;;5012162;28;20238;-78
2020/12/15 12:59:28;;;;;;;1999.90;999.90;;;8.90;99.90;;;;;;5011459;28;20618;-78
2020/12/15 13:01:59;;;;;;;1999.90;999.90;;;8.70;99.90;;;;;;5011891;28;20634;-78
2020/12/15 13:04:27;;;;;;;1999.90;999.90;;;8.60;99.90;;;;;;5011884;28;20326;-77
2020/12/15 13:06:53;;;;;;;1999.90;999.90;;;8.40;99.90;;;;;;5011800;28;20207;-78
2020/12/15 13:09:21;;;;;;;1999.90;999.90;;;8.50;99.90;;;;;;4998262;28;20200;-78
2020/12/15 13:11:51;;;;;;;1999.90;999.90;;;8.50;99.90;;;;;;4992204;28;20220;-78
2020/12/15 13:14:19;;;;;;;1999.90;999.90;;;8.40;99.90;;;;;;4991957;28;20262;-78
2020/12/15 13:16:47;;;;;;;1999.90;999.90;;;8.30;99.90;;;;;;4992540;28;20615;-77
2020/12/15 13:19:14;;;;;;;1999.90;999.90;;;8.30;99.90;;;;;;4992030;28;20235;-78
2020/12/15 13:21:40;;;;;;;1999.90;999.90;;;8.20;99.90;;;;;;4992253;28;20276;-78
2020/12/15 13:24:07;;;;;;;1999.90;999.90;;;8.10;99.90;;;;;;4992168;28;20329;-78
2020/12/15 13:26:34;;;;;;;1999.90;999.90;;;8.10;99.90;;;;;;4992165;28;20677;-77
2020/12/15 13:29:01;;;;;;;1999.90;999.90;;;8.10;99.90;;;;;;4991807;28;20204;-79
2020/12/15 13:31:28;;;;;;;1999.90;999.90;;;8.00;99.90;;;;;;4992572;28;20259;-78
2020/12/15 13:33:56;;;;;;;1999.90;999.90;;;8.10;99.90;;;;;;4992617;28;20203;-78
2020/12/15 13:36:23;;;;;;;1999.90;999.90;;;8.10;99.90;;;;;;4992863;28;20266;-79
2020/12/15 13:38:49;;;;;;;1999.90;999.90;;;8.10;99.90;;;;;;4992381;28;20348;-78
2020/12/15 13:41:19;;;;;;;1999.90;999.90;;;8.20;99.90;;;;;;4991986;28;20286;-78
2020/12/15 13:43:48;;;;;;;1999.90;999.90;;;8.10;99.90;;;;;;4992165;28;20250;-76
2020/12/15 13:46:15;;;;;;;1999.90;999.90;;;8.10;99.90;;;;;;4992769;28;20207;-79
2020/12/15 13:48:42;;;;;;;1999.90;999.90;;;8.10;99.90;;;;;;4993212;28;20210;-78
2020/12/15 13:51:10;;;;;;;1999.90;999.90;;;8.20;99.90;;;;;;4995759;28;20232;-77
2020/12/15 13:53:37;;;;;;;1999.90;999.90;;;8.20;99.90;;;;;;4995629;28;20661;-77
2020/12/15 13:56:03;;;;;;;1999.90;999.90;;;8.10;99.90;;;;;;4995967;28;20340;-77
2020/12/15 13:58:31;;;;;;;1999.90;999.90;;;8.10;99.90;;;;;;4997692;28;20211;-79
2020/12/15 14:00:59;;;;;;;1999.90;999.90;;;8.00;99.90;;;;;;4998642;28;20220;-77
2020/12/15 14:03:26;;;;;;;1999.90;999.90;;;7.90;99.90;;;;;;4995633;28;20228;-79
2020/12/15 14:05:53;;;;;;;1999.90;999.90;;;7.90;99.90;;;;;;4994956;28;20739;-78
2020/12/15 14:08:20;;;;;;;1999.90;999.90;;;7.80;99.90;;;;;;4994795;28;20639;-77
2020/12/15 14:10:47;;;;;;;1999.90;999.90;;;7.80;99.90;;;;;;4995509;28;20708;-78
2020/12/15 14:13:14;;;;;;;1999.90;999.90;;;7.90;99.90;;;;;;4995982;28;20254;-79
2020/12/15 14:15:41;;;;;;;1999.90;999.90;;;7.90;99.90;;;;;;4995327;28;20204;-78
2020/12/15 14:18:09;;;;;;;1999.90;999.90;;;7.90;99.90;;;;;;4994616;28;20254;-76
2020/12/15 14:20:37;;;;;;;1999.90;999.90;;;7.80;99.90;;;;;;4994239;28;20290;-76
2020/12/15 14:23:05;;;;;;;1999.90;999.90;;;8.00;99.90;;;;;;4993185;28;20472;-75
2020/12/15 14:25:33;;;;;;;1999.90;999.90;;;8.00;99.90;;;;;;4994886;28;20575;-75
2020/12/15 14:28:00;;;;;;;1999.90;999.90;;;7.90;99.90;;;;;;4998179;28;20199;-74
2020/12/15 14:30:27;;;;;;;1999.90;999.90;;;7.90;99.90;;;;;;4994593;28;20227;-75
2020/12/15 14:32:54;;;;;;;1999.90;999.90;;;7.80;99.90;;;;;;4994674;28;20204;-75
2020/12/15 14:35:21;;;;;;;1999.90;999.90;;;7.80;99.90;;;;;;4994925;28;20200;-75
2020/12/15 14:37:48;;;;;;;1999.90;999.90;;;7.80;99.90;;;;;;4994568;28;20208;-76
2020/12/15 14:40:15;;;;;;;1999.90;999.90;;;7.70;99.90;;;;;;4994499;28;20237;-76
2020/12/15 14:42:42;;;;;;;1999.90;999.90;;;7.70;99.90;;;;;;4994259;28;20631;-75
2020/12/15 14:45:09;;;;;;;1999.90;999.90;;;7.60;99.90;;;;;;4994402;28;20207;-77
2020/12/15 14:47:36;;;;;;;1999.90;999.90;;;7.60;99.90;;;;;;4994312;28;20207;-75
2020/12/15 14:50:04;;;;;;;1999.90;999.90;;;7.50;99.90;;;;;;4993942;28;20211;-75
2020/12/15 14:52:36;;;;;;;1999.90;999.90;;;7.40;99.90;;;;;;4988614;28;20291;-78
2020/12/15 14:55:04;;;;;;;1999.90;999.90;;;7.40;99.90;;;;;;4995735;28;20631;-79
2020/12/15 14:57:31;;;;;;;1999.90;999.90;;;7.20;99.90;;;;;;4994307;28;20211;-78
2020/12/15 14:59:59;;;;;;;1999.90;999.90;;;7.20;99.90;;;;;;4992805;28;20615;-76
2020/12/15 15:02:26;;;;;;;1999.90;999.90;;;7.20;99.90;;;;;;5002051;28;20215;-77
2020/12/15 15:04:53;;;;;;;1999.90;999.90;;;7.20;99.90;;;;;;4997739;28;20244;-76
2020/12/15 15:07:20;;;;;;;1999.90;999.90;;;7.20;99.90;;;;;;4993507;28;20258;-78
2020/12/15 15:10:05;;;;;;;1999.90;999.90;;;7.10;99.90;;;;;;4993713;28;20262;-76
2020/12/15 15:12:32;;;;;;;1999.90;999.90;;;7.10;99.90;;;;;;4993547;28;20700;-75
2020/12/15 15:15:00;;;;;;;1999.90;999.90;;;7.10;99.90;;;;;;4993352;28;20200;-76
2020/12/15 15:17:27;;;;;;;1999.90;999.90;;;7.10;99.90;;;;;;4998277;28;20591;-76
2020/12/15 15:19:54;;;;;;;1999.90;999.90;;;7.10;99.90;;;;;;5012740;28;20207;-77
2020/12/15 15:22:21;;;;;;;1999.90;999.90;;;7.10;99.90;;;;;;5013130;28;20220;-76
2020/12/15 15:24:48;;;;;;;1999.90;999.90;;;7.10;99.90;;;;;;5012935;28;20625;-76
2020/12/15 15:27:14;;;;;;;1999.90;999.90;;;7.00;99.90;;;;;;5013030;28;20203;-76
2020/12/15 15:29:43;;;;;;;1999.90;999.90;;;7.10;99.90;;;;;;5012892;28;20627;-77
2020/12/15 15:32:11;;;;;;;1999.90;999.90;;;7.10;99.90;;;;;;5008295;28;20255;-75
2020/12/15 15:34:38;;;;;;;1999.90;999.90;;;7.10;99.90;;;;;;4993274;28;20241;-76
2020/12/15 15:37:05;;;;;;;1999.90;999.90;;;7.00;99.90;;;;;;4992311;28;20200;-76
2020/12/15 15:39:33;;;;;;;1999.90;999.90;;;7.00;99.90;;;;;;4993142;28;20200;-77
2020/12/15 15:42:00;;;;;;;1999.90;999.90;;;7.00;99.90;;;;;;4992734;28;20603;-76
2020/12/15 15:44:27;;;;;;;1999.90;999.90;;;6.90;99.90;;;;;;4993317;28;20254;-76
2020/12/15 15:46:54;;;;;;;1999.90;999.90;;;6.90;99.90;;;;;;4992940;28;20212;-76
2020/12/15 15:49:25;;;;;;;1999.90;999.90;;;7.00;99.90;;;;;;4992907;28;20214;-76
2020/12/15 15:51:52;;;;;;;1999.90;999.90;;;7.00;99.90;;;;;;4992711;28;20634;-77
2020/12/15 15:54:22;;;;;;;1999.90;999.90;;;7.00;99.90;;;;;;4992716;28;20208;-76
2020/12/15 15:56:49;;;;;;;1999.90;999.90;;;7.10;99.90;;;;;;4992753;28;20207;-75
2020/12/15 15:59:16;;;;;;;1999.90;999.90;;;7.10;99.90;;;;;;4992916;28;20208;-75
2020/12/15 16:01:42;;;;;;;1999.90;999.90;;;7.10;99.90;;;;;;4992672;28;20719;-74
2020/12/15 16:04:09;;;;;;;1999.90;999.90;;;7.10;99.90;;;;;;4992822;28;20227;-75
2020/12/15 16:06:37;;;;;;;1999.90;999.90;;;7.10;99.90;;;;;;4992551;28;20204;-74
2020/12/15 16:09:07;;;;;;;1999.90;999.90;;;7.10;99.90;;;;;;4992417;28;20204;-74
2020/12/15 16:11:34;;;;;;;1999.90;999.90;;;7.00;99.90;;;;;;4991952;28;20267;-75
2020/12/15 16:14:03;;;;;;;1999.90;999.90;;;7.00;99.90;;;;;;4992636;28;20204;-74
2020/12/15 16:16:29;;;;;;;1999.90;999.90;;;7.00;99.90;;;;;;4992520;28;20340;-75
2020/12/15 16:18:56;;;;;;;1999.90;999.90;;;7.00;99.90;;;;;;4992424;28;20230;-74
2020/12/15 16:21:23;;;;;;;1999.90;999.90;;;7.00;99.90;;;;;;4991984;28;20609;-74
2020/12/15 16:23:51;;;;;;;1999.90;999.90;;;7.00;99.90;;;;;;4992761;28;20220;-74
2020/12/15 16:26:18;;;;;;;1999.90;999.90;;;6.90;99.90;;;;;;4991046;28;20203;-76
2020/12/15 16:28:45;;;;;;;1999.90;999.90;;;7.10;99.90;;;;;;4992059;28;20295;-75
2020/12/15 16:31:11;;;;;;;1999.90;999.90;;;7.10;99.90;;;;;;4992335;28;20228;-75
2020/12/15 16:33:38;;;;;;;1999.90;999.90;;;7.10;99.90;;;;;;4992534;28;20203;-74
2020/12/15 16:36:08;;;;;;;1999.90;999.90;;;7.10;99.90;;;;;;4992451;28;20204;-76
2020/12/15 16:38:35;;;;;;;1999.90;999.90;;;7.10;99.90;;;;;;4992480;28;20207;-77
2020/12/15 16:41:05;;;;;;;1999.90;999.90;;;7.10;99.90;;;;;;4992445;28;20232;-75
2020/12/15 16:43:32;;;;;;;1999.90;999.90;;;7.10;99.90;;;;;;4992373;28;20228;-76
2020/12/15 16:45:59;;;;;;;1999.90;999.90;;;7.10;99.90;;;;;;4992309;28;20204;-76
2020/12/15 16:48:27;;;;;;;1999.90;999.90;;;7.10;99.90;;;;;;4991729;28;20311;-76
2020/12/15 16:50:54;;;;;;;1999.90;999.90;;;7.20;99.90;;;;;;4981886;28;20243;-74
2020/12/15 16:53:22;;;;;;;1999.90;999.90;;;7.20;99.90;;;;;;4989724;28;20196;-74
2020/12/15 16:55:49;;;;;;;1999.90;999.90;;;7.30;99.90;;;;;;4992251;28;20208;-75
2020/12/15 16:58:19;;;;;;;1999.90;999.90;;;7.30;99.90;;;;;;4991868;28;20660;-74
2020/12/15 17:00:47;;;;;;;1999.90;999.90;;;7.30;99.90;;;;;;4992785;28;20223;-75
2020/12/15 17:03:14;;;;;;;1999.90;999.90;;;7.20;99.90;;;;;;4991843;28;20228;-75
2020/12/15 17:05:40;;;;;;;1999.90;999.90;;;7.20;99.90;;;;;;4992590;28;20294;-77
2020/12/15 17:08:07;;;;;;;1999.90;999.90;;;7.30;99.90;;;;;;5005283;28;20249;-80
2020/12/15 17:10:34;;;;;;;1999.90;999.90;;;7.20;99.90;;;;;;4997165;28;20255;-79
2020/12/15 17:13:09;;;;;;;1999.90;999.90;;;7.20;99.90;;;;;;5005917;28;20199;-81
2020/12/15 17:15:37;;;;;;;1999.90;999.90;;;7.30;99.90;;;;;;5012940;28;20231;-80
2020/12/15 17:18:04;;;;;;;1999.90;999.90;;;7.30;99.90;;;;;;5011325;28;20200;-81
2020/12/15 17:20:33;;;;;;;1999.90;999.90;;;7.30;99.90;;;;;;5012033;28;20243;-80
2020/12/15 17:23:04;;;;;;;1999.90;999.90;;;7.30;99.90;;;;;;5011463;28;20228;-81
2020/12/15 17:25:33;;;;;;;1999.90;999.90;;;7.40;99.90;;;;;;5017771;28;20204;-80
2020/12/15 17:28:01;;;;;;;1999.90;999.90;;;7.30;99.90;;;;;;5005805;28;20210;-78
2020/12/15 17:30:30;;;;;;;1999.90;999.90;;;7.30;99.90;;;;;;5004678;28;20204;-79
2020/12/15 17:32:57;;;;;;;1999.90;999.90;;;7.30;99.90;;;;;;5001967;28;20200;-78
2020/12/15 17:35:24;;;;;;;1999.90;999.90;;;7.40;99.90;;;;;;4996137;28;20572;-79
2020/12/15 17:37:52;;;;;;;1999.90;999.90;;;7.30;99.90;;;;;;4996691;28;20458;-80
2020/12/15 17:40:19;;;;;;;1999.90;999.90;;;7.30;99.90;;;;;;5008161;28;20612;-79
2020/12/15 17:42:46;;;;;;;1999.90;999.90;;;7.30;99.90;;;;;;5007894;28;20283;-80